createdAt,value
2018-09-19T00:00:26.085Z,19.19
2018-09-19T00:01:26.335Z,19.22
2018-09-19T00:02:26.181Z,19.12
2018-09-19T00:03:26.079Z,19.04
2018-09-19T00:04:26.079Z,19.07
2018-09-19T00:05:26.087Z,19.09
2018-09-19T00:06:26.072Z,19.07
2018-09-19T00:07:26.341Z,19.09
2018-09-19T00:08:26.345Z,19.26
2018-09-19T00:09:26.337Z,19.14
2018-09-19T00:10:26.078Z,19.16
2018-09-19T00:11:26.400Z,19.12
2018-09-19T00:12:26.451Z,19.11
2018-09-19T00:13:25.816Z,19.15
2018-09-19T00:14:26.365Z,19.15
2018-09-19T00:15:26.332Z,19.16
2018-09-19T00:16:26.073Z,19.09
2018-09-19T00:17:26.379Z,19.14
2018-09-19T00:18:26.421Z,19.07
2018-09-19T00:19:26.379Z,19.07
2018-09-19T00:20:26.550Z,19.08
2018-09-19T00:21:25.833Z,19.08
2018-09-19T00:22:26.197Z,19.07
2018-09-19T00:23:26.125Z,19.02
2018-09-19T00:24:26.099Z,18.96
2018-09-19T00:25:26.347Z,18.95
2018-09-19T00:26:26.118Z,18.93
2018-09-19T00:27:26.159Z,18.92
2018-09-19T00:28:26.081Z,18.86
2018-09-19T00:29:26.363Z,18.8
2018-09-19T00:30:26.363Z,18.8
2018-09-19T00:31:26.142Z,18.74
2018-09-19T00:32:26.544Z,18.74
2018-09-19T00:33:26.335Z,18.71
2018-09-19T00:34:26.411Z,18.77
2018-09-19T00:35:26.344Z,18.83
2018-09-19T00:36:26.096Z,18.84
2018-09-19T00:37:26.114Z,18.81
2018-09-19T00:38:26.085Z,18.84
2018-09-19T00:39:25.835Z,18.96
2018-09-19T00:40:26.343Z,18.95
2018-09-19T00:41:26.365Z,18.95
2018-09-19T00:42:26.394Z,18.93
2018-09-19T00:43:26.124Z,18.93
2018-09-19T00:44:26.364Z,18.99
2018-09-19T00:45:26.098Z,18.96
2018-09-19T00:46:26.088Z,19
2018-09-19T00:47:25.885Z,18.98
2018-09-19T00:48:26.363Z,18.92
2018-09-19T00:49:26.385Z,18.93
2018-09-19T00:50:26.362Z,18.9
2018-09-19T00:51:26.345Z,18.98
2018-09-19T00:52:26.351Z,19.08
2018-09-19T00:53:25.827Z,19
2018-09-19T00:54:26.105Z,19.11
2018-09-19T00:55:26.355Z,19.02
2018-09-19T00:56:25.831Z,18.93
2018-09-19T00:57:26.413Z,18.81
2018-09-19T00:58:26.136Z,18.95
2018-09-19T00:59:26.119Z,18.88
2018-09-19T01:00:26.366Z,18.81
2018-09-19T01:01:26.357Z,18.68
2018-09-19T01:02:26.478Z,18.71
2018-09-19T01:03:26.108Z,18.71
2018-09-19T01:04:26.360Z,18.73
2018-09-19T01:05:26.368Z,18.59
2018-09-19T01:06:26.091Z,18.7
2018-09-19T01:07:26.142Z,18.6
2018-09-19T01:08:26.086Z,18.59
2018-09-19T01:09:26.375Z,18.65
2018-09-19T01:10:26.357Z,18.68
2018-09-19T01:11:26.089Z,18.62
2018-09-19T01:12:25.892Z,18.68
2018-09-19T01:13:26.116Z,18.58
2018-09-19T01:14:26.380Z,18.68
2018-09-19T01:15:26.341Z,18.68
2018-09-19T01:16:26.088Z,18.58
2018-09-19T01:17:26.396Z,18.68
2018-09-19T01:18:26.086Z,18.58
2018-09-19T01:19:26.114Z,18.58
2018-09-19T01:20:26.350Z,18.58
2018-09-19T01:21:26.340Z,18.7
2018-09-19T01:22:26.388Z,18.58
2018-09-19T01:23:26.340Z,18.56
2018-09-19T01:24:26.087Z,18.49
2018-09-19T01:25:26.079Z,18.59
2018-09-19T01:26:26.081Z,18.59
2018-09-19T01:27:26.129Z,18.56
2018-09-19T01:28:26.079Z,18.63
2018-09-19T01:29:26.099Z,18.6
2018-09-19T01:30:26.088Z,18.62
2018-09-19T01:31:26.079Z,18.65
2018-09-19T01:32:26.458Z,18.6
2018-09-19T01:33:26.104Z,18.68
2018-09-19T01:34:26.351Z,18.66
2018-09-19T01:35:26.360Z,18.62
2018-09-19T01:36:26.103Z,18.6
2018-09-19T01:37:26.343Z,18.7
2018-09-19T01:38:26.353Z,18.6
2018-09-19T01:39:26.092Z,18.6
2018-09-19T01:40:26.390Z,18.5
2018-09-19T01:41:26.420Z,18.58
2018-09-19T01:42:25.885Z,18.58
2018-09-19T01:43:26.093Z,18.65
2018-09-19T01:44:26.358Z,18.66
2018-09-19T01:45:26.081Z,18.7
2018-09-19T01:46:25.829Z,18.62
2018-09-19T01:47:27.417Z,18.68
2018-09-19T01:48:26.347Z,18.62
2018-09-19T01:49:26.352Z,18.65
2018-09-19T01:50:26.358Z,18.52
2018-09-19T01:51:25.822Z,18.6
2018-09-19T01:52:26.361Z,18.66
2018-09-19T01:53:26.351Z,18.55
2018-09-19T01:54:25.835Z,18.58
2018-09-19T01:55:26.351Z,18.43
2018-09-19T01:56:26.338Z,18.59
2018-09-19T01:57:26.135Z,18.56
2018-09-19T01:58:26.343Z,18.62
2018-09-19T01:59:25.840Z,18.56
2018-09-19T02:00:26.103Z,18.58
2018-09-19T02:01:26.082Z,18.58
2018-09-19T02:02:26.992Z,18.49
2018-09-19T02:03:26.361Z,18.43
2018-09-19T02:04:26.165Z,18.37
2018-09-19T02:05:26.360Z,18.34
2018-09-19T02:06:26.375Z,18.41
2018-09-19T02:07:26.083Z,18.47
2018-09-19T02:08:26.119Z,18.34
2018-09-19T02:09:26.099Z,18.33
2018-09-19T02:10:26.341Z,18.4
2018-09-19T02:11:26.339Z,18.31
2018-09-19T02:12:26.335Z,18.33
2018-09-19T02:13:26.116Z,18.23
2018-09-19T02:14:26.345Z,18.26
2018-09-19T02:15:26.349Z,18.23
2018-09-19T02:16:25.822Z,18.22
2018-09-19T02:17:26.079Z,18.19
2018-09-19T02:18:26.135Z,18.18
2018-09-19T02:19:26.359Z,18.1
2018-09-19T02:20:26.332Z,18.16
2018-09-19T02:21:26.333Z,18.07
2018-09-19T02:22:26.084Z,18.01
2018-09-19T02:23:26.082Z,17.89
2018-09-19T02:24:26.136Z,17.85
2018-09-19T02:25:25.816Z,17.85
2018-09-19T02:26:26.362Z,17.76
2018-09-19T02:27:26.334Z,17.76
2018-09-19T02:28:26.176Z,17.72
2018-09-19T02:29:26.328Z,17.71
2018-09-19T02:30:26.094Z,17.72
2018-09-19T02:31:26.341Z,17.72
2018-09-19T02:32:26.344Z,17.65
2018-09-19T02:33:26.168Z,17.72
2018-09-19T02:34:26.089Z,17.72
2018-09-19T02:35:26.348Z,17.72
2018-09-19T02:36:26.099Z,17.71
2018-09-19T02:37:26.323Z,17.72
2018-09-19T02:38:27.194Z,17.71
2018-09-19T02:39:26.077Z,17.74
2018-09-19T02:40:26.063Z,17.72
2018-09-19T02:41:26.707Z,17.67
2018-09-19T02:42:26.336Z,17.7
2018-09-19T02:43:26.344Z,17.67
2018-09-19T02:44:26.338Z,17.64
2018-09-19T02:45:26.322Z,17.68
2018-09-19T02:46:26.321Z,17.59
2018-09-19T02:47:26.074Z,17.57
2018-09-19T02:48:26.398Z,17.59
2018-09-19T02:49:26.089Z,17.59
2018-09-19T02:50:26.058Z,17.6
2018-09-19T02:51:26.051Z,17.56
2018-09-19T02:52:26.321Z,17.51
2018-09-19T02:53:26.064Z,17.49
2018-09-19T02:54:26.060Z,17.46
2018-09-19T02:55:26.329Z,17.44
2018-09-19T02:56:26.317Z,17.41
2018-09-19T02:57:26.329Z,17.49
2018-09-19T02:58:26.299Z,17.46
2018-09-19T02:59:26.371Z,17.54
2018-09-19T03:00:26.338Z,17.45
2018-09-19T03:01:26.036Z,17.51
2018-09-19T03:02:26.306Z,17.49
2018-09-19T03:03:26.329Z,17.54
2018-09-19T03:04:26.285Z,17.59
2018-09-19T03:05:26.375Z,17.56
2018-09-19T03:06:26.027Z,17.59
2018-09-19T03:07:26.026Z,17.57
2018-09-19T03:08:26.287Z,17.52
2018-09-19T03:09:26.350Z,17.56
2018-09-19T03:10:26.281Z,17.6
2018-09-19T03:11:26.034Z,17.49
2018-09-19T03:12:26.288Z,17.54
2018-09-19T03:13:26.328Z,17.38
2018-09-19T03:14:26.034Z,17.49
2018-09-19T03:15:26.139Z,17.51
2018-09-19T03:16:26.293Z,17.49
2018-09-19T03:17:26.776Z,17.51
2018-09-19T03:18:28.232Z,17.46
2018-09-19T03:19:26.023Z,17.52
2018-09-19T03:20:26.277Z,17.57
2018-09-19T03:21:26.284Z,17.54
2018-09-19T03:22:26.320Z,17.63
2018-09-19T03:23:26.332Z,17.68
2018-09-19T03:24:26.284Z,17.57
2018-09-19T03:25:26.267Z,17.57
2018-09-19T03:26:26.009Z,17.56
2018-09-19T03:27:26.330Z,17.46
2018-09-19T03:28:26.262Z,17.57
2018-09-19T03:29:26.025Z,17.56
2018-09-19T03:30:26.353Z,17.52
2018-09-19T03:31:26.327Z,17.49
2018-09-19T03:32:26.028Z,17.6
2018-09-19T03:33:26.007Z,17.51
2018-09-19T03:34:26.038Z,17.36
2018-09-19T03:35:26.589Z,17.42
2018-09-19T03:36:26.004Z,17.45
2018-09-19T03:37:26.271Z,17.34
2018-09-19T03:38:26.275Z,17.44
2018-09-19T03:39:26.284Z,17.34
2018-09-19T03:40:26.278Z,17.33
2018-09-19T03:41:26.067Z,17.38
2018-09-19T03:42:26.266Z,17.34
2018-09-19T03:43:26.278Z,17.34
2018-09-19T03:44:26.270Z,17.33
2018-09-19T03:45:26.271Z,17.44
2018-09-19T03:46:26.279Z,17.2
2018-09-19T03:47:26.280Z,17.16
2018-09-19T03:48:26.257Z,17.09
2018-09-19T03:49:26.263Z,17.09
2018-09-19T03:50:26.262Z,17.12
2018-09-19T03:51:26.248Z,17.27
2018-09-19T03:52:26.265Z,17.2
2018-09-19T03:53:26.238Z,17.19
2018-09-19T03:54:26.049Z,17.2
2018-09-19T03:55:25.989Z,17.29
2018-09-19T03:56:25.988Z,17.22
2018-09-19T03:57:26.001Z,17.19
2018-09-19T03:58:26.151Z,17.2
2018-09-19T03:59:26.241Z,17.24
2018-09-19T04:00:25.977Z,17.23
2018-09-19T04:01:25.982Z,17.27
2018-09-19T04:02:26.277Z,17.33
2018-09-19T04:03:26.238Z,17.24
2018-09-19T04:04:26.427Z,17.3
2018-09-19T04:05:25.726Z,17.3
2018-09-19T04:06:26.245Z,17.31
2018-09-19T04:07:25.975Z,17.3
2018-09-19T04:08:26.233Z,17.19
2018-09-19T04:09:25.971Z,17.19
2018-09-19T04:10:25.710Z,17.05
2018-09-19T04:11:25.713Z,17.11
2018-09-19T04:12:25.978Z,17.06
2018-09-19T04:13:26.236Z,17.01
2018-09-19T04:14:26.257Z,17.09
2018-09-19T04:15:26.221Z,17.05
2018-09-19T04:16:25.761Z,17.02
2018-09-19T04:17:26.286Z,17.04
2018-09-19T04:18:25.702Z,17.02
2018-09-19T04:19:26.616Z,17.01
2018-09-19T04:20:26.222Z,17.05
2018-09-19T04:21:26.257Z,17.06
2018-09-19T04:22:25.973Z,17.02
2018-09-19T04:23:26.238Z,17.09
2018-09-19T04:24:26.276Z,17.04
2018-09-19T04:25:26.157Z,17.01
2018-09-19T04:26:25.972Z,17.01
2018-09-19T04:27:26.105Z,16.99
2018-09-19T04:28:25.972Z,17.04
2018-09-19T04:29:26.256Z,16.97
2018-09-19T04:30:26.213Z,16.91
2018-09-19T04:31:26.229Z,16.99
2018-09-19T04:32:26.197Z,16.97
2018-09-19T04:33:26.230Z,16.96
2018-09-19T04:34:26.002Z,17.02
2018-09-19T04:35:26.231Z,17.08
2018-09-19T04:36:26.265Z,16.97
2018-09-19T04:37:25.956Z,16.94
2018-09-19T04:38:26.212Z,16.93
2018-09-19T04:39:25.953Z,16.93
2018-09-19T04:40:25.955Z,16.9
2018-09-19T04:41:26.224Z,16.79
2018-09-19T04:42:26.251Z,16.83
2018-09-19T04:43:26.206Z,16.76
2018-09-19T04:44:25.692Z,16.71
2018-09-19T04:45:26.378Z,16.69
2018-09-19T04:46:26.189Z,16.68
2018-09-19T04:47:26.212Z,16.72
2018-09-19T04:48:25.937Z,16.66
2018-09-19T04:49:26.313Z,16.75
2018-09-19T04:50:25.940Z,16.75
2018-09-19T04:51:26.462Z,16.83
2018-09-19T04:52:26.209Z,16.78
2018-09-19T04:53:26.218Z,16.93
2018-09-19T04:54:25.940Z,16.81
2018-09-19T04:55:26.179Z,16.83
2018-09-19T04:56:25.936Z,16.83
2018-09-19T04:57:25.936Z,16.86
2018-09-19T04:58:25.950Z,16.93
2018-09-19T04:59:26.202Z,16.99
2018-09-19T05:00:26.193Z,17.02
2018-09-19T05:01:26.208Z,17.08
2018-09-19T05:02:26.185Z,17.11
2018-09-19T05:03:26.194Z,17.12
2018-09-19T05:04:26.190Z,17.15
2018-09-19T05:05:26.183Z,17.15
2018-09-19T05:06:26.204Z,17.11
2018-09-19T05:07:26.461Z,17.14
2018-09-19T05:08:25.667Z,17.19
2018-09-19T05:09:26.195Z,17.15
2018-09-19T05:10:25.921Z,17.08
2018-09-19T05:11:26.479Z,17.04
2018-09-19T05:12:26.171Z,17.04
2018-09-19T05:13:26.171Z,16.96
2018-09-19T05:14:26.187Z,17.05
2018-09-19T05:15:26.176Z,17.04
2018-09-19T05:16:26.163Z,17.01
2018-09-19T05:17:26.156Z,17.04
2018-09-19T05:18:26.165Z,17.08
2018-09-19T05:19:26.193Z,17.04
2018-09-19T05:20:26.157Z,17.01
2018-09-19T05:21:25.650Z,16.99
2018-09-19T05:22:25.931Z,17.02
2018-09-19T05:23:25.909Z,16.99
2018-09-19T05:24:25.655Z,16.91
2018-09-19T05:25:26.178Z,16.96
2018-09-19T05:26:25.910Z,16.87
2018-09-19T05:27:25.908Z,16.76
2018-09-19T05:28:25.649Z,16.91
2018-09-19T05:29:25.914Z,16.86
2018-09-19T05:30:26.154Z,16.84
2018-09-19T05:31:25.925Z,16.79
2018-09-19T05:32:26.156Z,16.84
2018-09-19T05:33:26.150Z,16.76
2018-09-19T05:34:26.152Z,16.75
2018-09-19T05:35:26.203Z,16.79
2018-09-19T05:36:25.894Z,16.83
2018-09-19T05:37:26.160Z,16.83
2018-09-19T05:38:25.900Z,16.86
2018-09-19T05:39:25.900Z,16.93
2018-09-19T05:40:26.203Z,16.93
2018-09-19T05:41:25.895Z,16.94
2018-09-19T05:42:25.881Z,16.99
2018-09-19T05:43:25.885Z,17.08
2018-09-19T05:44:26.156Z,17.01
2018-09-19T05:45:26.954Z,17.08
2018-09-19T05:46:26.069Z,17.04
2018-09-19T05:47:25.882Z,17.02
2018-09-19T05:48:26.127Z,17.04
2018-09-19T05:49:25.898Z,17.11
2018-09-19T05:50:26.185Z,17.04
2018-09-19T05:51:26.130Z,17.14
2018-09-19T05:52:26.133Z,17.19
2018-09-19T05:53:25.874Z,17.22
2018-09-19T05:54:26.007Z,17.34
2018-09-19T05:55:25.662Z,17.42
2018-09-19T05:56:25.881Z,17.36
2018-09-19T05:57:25.874Z,17.38
2018-09-19T05:58:26.134Z,17.41
2018-09-19T05:59:25.933Z,17.49
2018-09-19T06:00:25.889Z,17.44
2018-09-19T06:01:26.144Z,17.51
2018-09-19T06:02:26.143Z,17.48
2018-09-19T06:03:26.167Z,17.51
2018-09-19T06:04:26.141Z,17.57
2018-09-19T06:05:25.958Z,17.46
2018-09-19T06:06:26.138Z,17.59
2018-09-19T06:07:26.118Z,17.46
2018-09-19T06:08:25.885Z,17.51
2018-09-19T06:09:26.130Z,17.54
2018-09-19T06:10:26.151Z,17.63
2018-09-19T06:11:25.874Z,17.6
2018-09-19T06:12:25.856Z,17.6
2018-09-19T06:13:25.866Z,17.63
2018-09-19T06:14:25.622Z,17.59
2018-09-19T06:15:26.131Z,17.63
2018-09-19T06:16:25.858Z,17.6
2018-09-19T06:17:25.907Z,17.65
2018-09-19T06:18:26.114Z,17.64
2018-09-19T06:19:26.153Z,17.7
2018-09-19T06:20:25.917Z,17.74
2018-09-19T06:21:25.866Z,17.72
2018-09-19T06:22:26.124Z,17.79
2018-09-19T06:23:26.125Z,17.76
2018-09-19T06:24:26.164Z,17.79
2018-09-19T06:25:25.874Z,17.94
2018-09-19T06:26:25.611Z,17.95
2018-09-19T06:27:25.882Z,17.94
2018-09-19T06:28:26.114Z,18.05
2018-09-19T06:29:26.124Z,17.97
2018-09-19T06:30:25.859Z,18.07
2018-09-19T06:31:25.860Z,18.04
2018-09-19T06:32:26.148Z,18.11
2018-09-19T06:33:26.277Z,18.13
2018-09-19T06:34:26.140Z,18.19
2018-09-19T06:35:26.161Z,18.15
2018-09-19T06:36:25.876Z,18.16
2018-09-19T06:37:26.118Z,18.13
2018-09-19T06:38:25.625Z,18.29
2018-09-19T06:39:26.241Z,18.31
2018-09-19T06:40:26.041Z,18.34
2018-09-19T06:41:25.857Z,18.6
2018-09-19T06:42:26.120Z,18.68
2018-09-19T06:43:25.859Z,19.12
2018-09-19T06:44:25.882Z,19.4
2018-09-19T06:45:25.882Z,19.64
2018-09-19T06:46:25.868Z,19.81
2018-09-19T06:47:26.115Z,19.94
2018-09-19T06:48:25.871Z,20.11
2018-09-19T06:49:26.149Z,20.22
2018-09-19T06:50:27.031Z,20.13
2018-09-19T06:51:25.863Z,20.37
2018-09-19T06:52:26.383Z,20.43
2018-09-19T06:53:25.620Z,20.51
2018-09-19T06:54:26.149Z,20.65
2018-09-19T06:55:26.210Z,20.7
2018-09-19T06:56:26.171Z,20.67
2018-09-19T06:57:25.621Z,20.75
2018-09-19T06:58:25.877Z,20.93
2018-09-19T06:59:25.895Z,21.11
2018-09-19T07:00:25.625Z,21.4
2018-09-19T07:01:25.901Z,21.58
2018-09-19T07:02:26.199Z,22.04
2018-09-19T07:03:26.154Z,22.36
2018-09-19T07:04:25.912Z,22.72
2018-09-19T07:05:26.171Z,23.15
2018-09-19T07:06:26.157Z,23.46
2018-09-19T07:07:25.916Z,23.83
2018-09-19T07:08:25.912Z,24.1
2018-09-19T07:09:26.248Z,24.32
2018-09-19T07:10:26.016Z,24.5
2018-09-19T07:11:25.932Z,24.5
2018-09-19T07:12:25.936Z,24.8
2018-09-19T07:13:26.000Z,24.96
2018-09-19T07:14:26.274Z,25.03
2018-09-19T07:15:26.189Z,25.1
2018-09-19T07:16:25.934Z,25.21
2018-09-19T07:17:25.939Z,25.21
2018-09-19T07:18:25.955Z,25.11
2018-09-19T07:19:25.945Z,25.31
2018-09-19T07:20:25.712Z,25.41
2018-09-19T07:21:25.709Z,25.48
2018-09-19T07:22:25.987Z,25.63
2018-09-19T07:23:26.252Z,25.7
2018-09-19T07:24:26.250Z,25.72
2018-09-19T07:25:26.417Z,25.84
2018-09-19T07:26:25.990Z,25.83
2018-09-19T07:27:25.992Z,25.95
2018-09-19T07:28:26.279Z,26.05
2018-09-19T07:29:26.275Z,26.31
2018-09-19T07:30:26.015Z,26.34
2018-09-19T07:31:26.012Z,26.45
2018-09-19T07:32:26.282Z,26.55
2018-09-19T07:33:26.033Z,26.59
2018-09-19T07:34:26.328Z,26.71
2018-09-19T07:35:26.291Z,26.68
2018-09-19T07:36:26.299Z,26.71
2018-09-19T07:37:26.312Z,26.53
2018-09-19T07:38:26.309Z,26.55
2018-09-19T07:39:26.065Z,26.66
2018-09-19T07:40:26.626Z,26.77
2018-09-19T07:41:26.061Z,26.83
2018-09-19T07:42:26.347Z,26.85
2018-09-19T07:43:26.370Z,26.97
2018-09-19T07:44:26.092Z,27.12
2018-09-19T07:45:26.087Z,27.17
2018-09-19T07:46:26.423Z,27.02
2018-09-19T07:47:26.117Z,27.1
2018-09-19T07:48:26.370Z,27.18
2018-09-19T07:49:26.117Z,27.17
2018-09-19T07:50:26.191Z,27.26
2018-09-19T07:51:27.325Z,27.4
2018-09-19T07:52:26.386Z,27.65
2018-09-19T07:53:26.130Z,27.92
2018-09-19T07:54:26.481Z,28.12
2018-09-19T07:55:26.234Z,28.29
2018-09-19T07:56:26.508Z,28.39
2018-09-19T07:57:26.424Z,28.59
2018-09-19T07:58:26.452Z,28.6
2018-09-19T07:59:26.185Z,28.41
2018-09-19T08:00:26.535Z,28.39
2018-09-19T08:01:26.722Z,28.39
2018-09-19T08:02:26.202Z,28.44
2018-09-19T08:03:25.943Z,28.48
2018-09-19T08:04:26.481Z,28.54
2018-09-19T08:05:26.486Z,28.72
2018-09-19T08:06:26.517Z,28.86
2018-09-19T08:07:26.228Z,28.98
2018-09-19T08:08:26.229Z,29.12
2018-09-19T08:09:26.499Z,29.23
2018-09-19T08:10:26.234Z,29.24
2018-09-19T08:11:26.245Z,29.39
2018-09-19T08:12:26.265Z,29.19
2018-09-19T08:13:26.523Z,29.04
2018-09-19T08:14:26.296Z,28.66
2018-09-19T08:15:26.289Z,28.29
2018-09-19T08:16:26.077Z,27.83
2018-09-19T08:17:26.534Z,27.26
2018-09-19T08:18:26.312Z,26.77
2018-09-19T08:19:26.600Z,26.31
2018-09-19T08:20:26.312Z,25.84
2018-09-19T08:21:31.742Z,25.38
2018-09-19T08:22:26.366Z,24.98
2018-09-19T08:23:26.329Z,24.73
2018-09-19T08:24:26.370Z,24.42
2018-09-19T08:25:26.579Z,24.26
2018-09-19T08:26:26.662Z,24.03
2018-09-19T08:27:26.362Z,23.88
2018-09-19T08:28:26.601Z,23.87
2018-09-19T08:29:26.373Z,23.91
2018-09-19T08:30:26.392Z,23.84
2018-09-19T08:31:26.118Z,23.96
2018-09-19T08:32:26.694Z,23.91
2018-09-19T08:33:26.403Z,23.93
2018-09-19T08:34:26.653Z,23.96
2018-09-19T08:35:26.396Z,24.03
2018-09-19T08:36:26.658Z,24.03
2018-09-19T08:37:26.739Z,24.02
2018-09-19T08:38:26.683Z,23.99
2018-09-19T08:39:26.548Z,24.01
2018-09-19T08:40:26.711Z,24.14
2018-09-19T08:41:26.417Z,24.14
2018-09-19T08:42:26.666Z,24.2
2018-09-19T08:43:26.448Z,24.17
2018-09-19T08:44:26.694Z,24.21
2018-09-19T08:45:26.684Z,24.2
2018-09-19T08:46:26.445Z,24.18
2018-09-19T08:47:26.549Z,24.3
2018-09-19T08:48:26.709Z,24.3
2018-09-19T08:49:26.831Z,24.29
2018-09-19T08:50:26.818Z,24.28
2018-09-19T08:51:26.448Z,24.51
2018-09-19T08:52:26.822Z,24.43
2018-09-19T08:53:26.717Z,24.4
2018-09-19T08:54:26.738Z,24.5
2018-09-19T08:55:26.724Z,24.33
2018-09-19T08:56:26.725Z,24.39
2018-09-19T08:57:26.737Z,24.51
2018-09-19T08:58:26.770Z,24.53
2018-09-19T08:59:26.556Z,24.54
2018-09-19T09:00:26.484Z,24.73
2018-09-19T09:01:26.486Z,24.65
2018-09-19T09:02:26.805Z,24.85
2018-09-19T09:03:26.736Z,24.78
2018-09-19T09:04:26.506Z,24.88
2018-09-19T09:05:27.167Z,24.92
2018-09-19T09:06:26.770Z,24.95
2018-09-19T09:07:26.875Z,24.99
2018-09-19T09:08:26.520Z,25.07
2018-09-19T09:09:26.781Z,25.03
2018-09-19T09:10:26.784Z,25.07
2018-09-19T09:11:26.778Z,25.16
2018-09-19T09:12:27.112Z,25.11
2018-09-19T09:13:26.823Z,25.22
2018-09-19T09:14:26.538Z,25.18
2018-09-19T09:15:26.802Z,25.25
2018-09-19T09:16:26.808Z,25.4
2018-09-19T09:17:26.867Z,25.41
2018-09-19T09:18:26.801Z,25.44
2018-09-19T09:19:26.551Z,25.47
2018-09-19T09:20:26.559Z,25.48
2018-09-19T09:21:26.561Z,25.48
2018-09-19T09:22:30.143Z,25.44
2018-09-19T09:23:26.581Z,25.47
2018-09-19T09:24:26.829Z,25.43
2018-09-19T09:25:26.836Z,25.48
2018-09-19T09:26:26.600Z,25.51
2018-09-19T09:27:27.195Z,25.6
2018-09-19T09:28:26.591Z,25.63
2018-09-19T09:29:26.855Z,25.68
2018-09-19T09:30:26.866Z,25.73
2018-09-19T09:31:26.594Z,25.72
2018-09-19T09:32:26.590Z,25.68
2018-09-19T09:33:26.606Z,25.68
2018-09-19T09:34:26.790Z,25.66
2018-09-19T09:35:26.874Z,25.72
2018-09-19T09:36:26.870Z,25.83
2018-09-19T09:37:26.630Z,25.84
2018-09-19T09:38:26.884Z,25.83
2018-09-19T09:39:26.638Z,25.87
2018-09-19T09:40:26.789Z,25.91
2018-09-19T09:41:26.941Z,25.91
2018-09-19T09:42:26.907Z,25.88
2018-09-19T09:43:27.143Z,25.93
2018-09-19T09:44:26.917Z,25.85
2018-09-19T09:45:26.664Z,25.83
2018-09-19T09:46:26.692Z,25.84
2018-09-19T09:47:26.917Z,25.95
2018-09-19T09:48:26.918Z,25.99
2018-09-19T09:49:26.668Z,26.09
2018-09-19T09:50:26.807Z,26.09
2018-09-19T09:51:26.763Z,26.03
2018-09-19T09:52:26.756Z,26.09
2018-09-19T09:53:27.204Z,26.16
2018-09-19T09:54:26.971Z,26.18
2018-09-19T09:55:27.565Z,26.18
2018-09-19T09:56:26.698Z,26.25
2018-09-19T09:57:26.699Z,26.28
2018-09-19T09:58:26.448Z,26.18
2018-09-19T09:59:26.726Z,26.29
2018-09-19T10:00:26.962Z,26.37
2018-09-19T10:01:26.729Z,26.4
2018-09-19T10:02:26.977Z,26.45
2018-09-19T10:03:26.748Z,26.47
2018-09-19T10:04:27.005Z,26.48
2018-09-19T10:05:27.148Z,26.55
2018-09-19T10:06:26.867Z,26.58
2018-09-19T10:07:27.152Z,26.6
2018-09-19T10:08:26.753Z,26.58
2018-09-19T10:09:27.037Z,26.47
2018-09-19T10:10:27.019Z,26.48
2018-09-19T10:11:26.764Z,26.44
2018-09-19T10:12:27.041Z,26.48
2018-09-19T10:13:26.872Z,26.55
2018-09-19T10:14:27.058Z,26.59
2018-09-19T10:15:27.045Z,26.68
2018-09-19T10:16:26.782Z,26.66
2018-09-19T10:17:27.047Z,26.75
2018-09-19T10:18:26.856Z,26.71
2018-09-19T10:19:26.802Z,26.9
2018-09-19T10:20:26.807Z,26.93
2018-09-19T10:21:26.538Z,26.99
2018-09-19T10:22:27.056Z,26.99
2018-09-19T10:23:31.776Z,26.92
2018-09-19T10:24:26.842Z,27.03
2018-09-19T10:25:27.064Z,26.99
2018-09-19T10:26:26.826Z,27.1
2018-09-19T10:27:27.079Z,27.18
2018-09-19T10:28:26.821Z,27.21
2018-09-19T10:29:27.134Z,27.14
2018-09-19T10:30:27.099Z,27.18
2018-09-19T10:31:27.101Z,27.18
2018-09-19T10:32:27.117Z,27.37
2018-09-19T10:33:27.106Z,27.27
2018-09-19T10:34:26.867Z,27.3
2018-09-19T10:35:27.348Z,27.36
2018-09-19T10:36:27.129Z,27.4
2018-09-19T10:37:27.136Z,27.36
2018-09-19T10:38:26.888Z,27.39
2018-09-19T10:39:26.911Z,27.42
2018-09-19T10:40:27.148Z,27.4
2018-09-19T10:41:26.904Z,27.4
2018-09-19T10:42:26.647Z,27.42
2018-09-19T10:43:26.915Z,27.45
2018-09-19T10:44:27.192Z,27.51
2018-09-19T10:45:26.910Z,27.58
2018-09-19T10:46:26.984Z,27.49
2018-09-19T10:47:26.931Z,27.58
2018-09-19T10:48:27.182Z,27.52
2018-09-19T10:49:27.043Z,27.63
2018-09-19T10:50:27.205Z,27.63
2018-09-19T10:51:26.718Z,27.64
2018-09-19T10:52:27.201Z,27.64
2018-09-19T10:53:27.213Z,27.68
2018-09-19T10:54:27.239Z,27.86
2018-09-19T10:55:26.993Z,27.8
2018-09-19T10:56:27.288Z,27.86
2018-09-19T10:57:26.961Z,27.92
2018-09-19T10:58:27.250Z,27.86
2018-09-19T10:59:27.350Z,27.83
2018-09-19T11:00:27.285Z,27.93
2018-09-19T11:01:27.017Z,27.95
2018-09-19T11:02:27.255Z,27.92
2018-09-19T11:03:26.994Z,28.07
2018-09-19T11:04:27.023Z,28.11
2018-09-19T11:05:27.045Z,28.19
2018-09-19T11:06:27.007Z,28.14
2018-09-19T11:07:27.013Z,28.17
2018-09-19T11:08:27.274Z,28.17
2018-09-19T11:09:27.295Z,28.1
2018-09-19T11:10:27.022Z,28.04
2018-09-19T11:11:27.033Z,28.02
2018-09-19T11:12:27.295Z,28.08
2018-09-19T11:13:27.053Z,28.1
2018-09-19T11:14:26.817Z,27.93
2018-09-19T11:15:27.322Z,28.02
2018-09-19T11:16:27.076Z,28.04
2018-09-19T11:17:26.826Z,28.08
2018-09-19T11:18:27.117Z,28.17
2018-09-19T11:19:27.374Z,28.17
2018-09-19T11:20:27.361Z,28.17
2018-09-19T11:21:27.368Z,28.29
2018-09-19T11:22:27.398Z,28.23
2018-09-19T11:23:27.364Z,28.35
2018-09-19T11:24:27.378Z,28.22
2018-09-19T11:25:27.408Z,28.39
2018-09-19T11:26:27.195Z,28.42
2018-09-19T11:27:27.116Z,28.47
2018-09-19T11:28:27.388Z,28.45
2018-09-19T11:29:26.912Z,28.41
2018-09-19T11:30:27.411Z,28.29
2018-09-19T11:31:27.392Z,28.23
2018-09-19T11:32:27.412Z,28.23
2018-09-19T11:33:26.915Z,28.27
2018-09-19T11:34:27.199Z,28.23
2018-09-19T11:35:27.421Z,28.27
2018-09-19T11:36:27.166Z,28.3
2018-09-19T11:37:27.426Z,28.39
2018-09-19T11:38:27.475Z,28.44
2018-09-19T11:39:27.222Z,28.39
2018-09-19T11:40:27.457Z,28.42
2018-09-19T11:41:27.433Z,28.41
2018-09-19T11:42:27.445Z,28.48
2018-09-19T11:43:27.662Z,28.48
2018-09-19T11:44:27.189Z,28.42
2018-09-19T11:45:27.213Z,28.47
2018-09-19T11:46:27.470Z,28.45
2018-09-19T11:47:27.474Z,28.59
2018-09-19T11:48:27.475Z,28.48
2018-09-19T11:49:27.222Z,28.56
2018-09-19T11:50:27.480Z,28.52
2018-09-19T11:51:27.486Z,28.62
2018-09-19T11:52:27.507Z,28.57
2018-09-19T11:53:27.265Z,28.59
2018-09-19T11:54:27.564Z,28.6
2018-09-19T11:55:27.254Z,28.59
2018-09-19T11:56:27.524Z,28.72
2018-09-19T11:57:27.260Z,28.67
2018-09-19T11:58:27.576Z,28.7
2018-09-19T11:59:27.571Z,28.63
2018-09-19T12:00:27.533Z,28.6
2018-09-19T12:01:27.529Z,28.63
2018-09-19T12:02:27.559Z,28.72
2018-09-19T12:03:27.293Z,28.72
2018-09-19T12:04:28.409Z,28.78
2018-09-19T12:05:27.562Z,28.84
2018-09-19T12:06:27.079Z,28.89
2018-09-19T12:07:27.721Z,28.85
2018-09-19T12:08:27.599Z,28.81
2018-09-19T12:09:27.684Z,28.81
2018-09-19T12:10:27.581Z,28.75
2018-09-19T12:11:27.585Z,28.75
2018-09-19T12:12:27.345Z,28.82
2018-09-19T12:13:27.610Z,28.85
2018-09-19T12:14:28.412Z,28.78
2018-09-19T12:15:27.608Z,28.85
2018-09-19T12:16:27.386Z,28.82
2018-09-19T12:17:27.642Z,28.75
2018-09-19T12:18:27.651Z,28.84
2018-09-19T12:19:27.427Z,28.78
2018-09-19T12:20:27.653Z,28.75
2018-09-19T12:21:27.659Z,28.86
2018-09-19T12:22:27.399Z,28.89
2018-09-19T12:23:27.652Z,28.97
2018-09-19T12:24:27.719Z,28.97
2018-09-19T12:25:27.415Z,29.02
2018-09-19T12:26:27.929Z,29.01
2018-09-19T12:27:27.424Z,28.89
2018-09-19T12:28:27.478Z,28.94
2018-09-19T12:29:27.447Z,28.98
2018-09-19T12:30:27.446Z,28.91
2018-09-19T12:31:27.711Z,28.94
2018-09-19T12:32:27.696Z,29.04
2018-09-19T12:33:27.896Z,28.97
2018-09-19T12:34:27.249Z,29.1
2018-09-19T12:35:27.478Z,29.07
2018-09-19T12:36:27.725Z,29.16
2018-09-19T12:37:27.514Z,29.17
2018-09-19T12:38:27.739Z,29.2
2018-09-19T12:39:27.616Z,29.34
2018-09-19T12:40:27.747Z,29.36
2018-09-19T12:41:27.500Z,29.44
2018-09-19T12:42:27.773Z,29.5
2018-09-19T12:43:27.500Z,29.41
2018-09-19T12:44:27.759Z,29.39
2018-09-19T12:45:27.858Z,29.35
2018-09-19T12:46:27.767Z,29.39
2018-09-19T12:47:27.783Z,29.44
2018-09-19T12:48:27.525Z,29.45
2018-09-19T12:49:27.529Z,29.5
2018-09-19T12:50:27.794Z,29.56
2018-09-19T12:51:27.790Z,29.44
2018-09-19T12:52:27.550Z,29.54
2018-09-19T12:53:27.988Z,29.59
2018-09-19T12:54:27.763Z,29.6
2018-09-19T12:55:27.560Z,29.66